Time;durP1;ratioP1;P1;durP2;ratioP2;P2;SDS_P1;SDS_P2;PMS_P1;PMS_P2;Temp;Humidity;BMP_temperature;BMP_pressure;BME280_temperature;BME280_humidity;BME280_pressure;Samples;Min_cycle;Max_cycle;Signal;HPM_P1;HPM_P2
2023/07/19 00:00:58;;;;;;;3.88;1.98;;;14.30;99.90;;;14.86;100.00;100600.38;4991399;28;20087;-78
2023/07/19 00:03:25;;;;;;;6.30;2.20;;;14.40;99.90;;;14.92;100.00;100604.84;4985438;28;20038;-78
2023/07/19 00:05:50;;;;;;;5.13;2.40;;;14.40;99.90;;;14.97;100.00;100601.38;4986577;28;20041;-78
2023/07/19 00:08:16;;;;;;;4.57;2.00;;;14.50;99.90;;;15.04;100.00;100595.75;4978567;28;20040;-78
2023/07/19 00:10:42;;;;;;;6.32;2.30;;;14.50;99.90;;;15.05;100.00;100594.66;4988401;28;20097;-78
2023/07/19 00:13:07;;;;;;;5.80;2.15;;;14.50;99.90;;;15.04;100.00;100587.50;4991834;28;20034;-78
2023/07/19 00:15:33;;;;;;;5.03;2.25;;;14.50;99.90;;;15.08;100.00;100591.41;4986278;28;20092;-78
2023/07/19 00:17:59;;;;;;;3.70;2.00;;;14.50;99.90;;;15.05;100.00;100587.22;4984900;28;20042;-79
2023/07/19 00:20:25;;;;;;;5.10;2.10;;;14.60;99.90;;;15.11;100.00;100593.66;4976489;28;20043;-80
2023/07/19 00:22:51;;;;;;;4.57;2.30;;;14.50;99.90;;;15.05;100.00;100583.66;4988084;28;20061;-79
2023/07/19 00:25:17;;;;;;;6.18;2.20;;;14.60;99.90;;;15.10;100.00;100592.00;5006439;28;20533;-79
2023/07/19 00:27:42;;;;;;;4.32;2.17;;;14.60;99.90;;;15.08;100.00;100583.16;4981127;28;20540;-79
2023/07/19 00:30:09;;;;;;;5.88;2.50;;;14.60;99.90;;;15.06;100.00;100577.09;5002085;28;20034;-79
2023/07/19 00:32:35;;;;;;;4.75;2.10;;;14.50;99.90;;;15.12;100.00;100578.84;5006881;28;20529;-79
2023/07/19 00:35:02;;;;;;;4.30;2.50;;;14.60;99.90;;;15.14;100.00;100568.44;4999594;28;20030;-79
2023/07/19 00:37:28;;;;;;;4.95;2.20;;;14.60;99.90;;;15.14;100.00;100557.44;4986389;28;20093;-79
2023/07/19 00:39:53;;;;;;;6.43;2.53;;;14.70;99.90;;;15.20;100.00;100559.19;4985818;28;20034;-79
2023/07/19 00:42:19;;;;;;;5.40;2.10;;;14.70;99.90;;;15.24;100.00;100551.28;4985047;28;20038;-80
2023/07/19 00:44:45;;;;;;;6.97;2.63;;;14.70;99.90;;;15.20;100.00;100555.63;4988781;28;20034;-79
2023/07/19 00:47:12;;;;;;;5.82;2.58;;;14.70;99.90;;;15.24;100.00;100548.53;4983633;28;20380;-79
2023/07/19 00:49:40;;;;;;;5.72;2.60;;;14.70;99.90;;;15.16;100.00;100529.72;5005942;28;20038;-79
2023/07/19 00:52:08;;;;;;;5.55;2.22;;;14.70;99.90;;;15.26;100.00;100543.63;4985474;28;20058;-79
2023/07/19 00:54:37;;;;;;;9.20;2.53;;;14.70;99.90;;;15.17;100.00;100542.38;4978754;28;20054;-80
2023/07/19 00:57:04;;;;;;;5.20;2.55;;;14.70;99.90;;;15.07;100.00;100532.88;4985950;28;20034;-79
2023/07/19 00:59:31;;;;;;;;;;;14.60;99.90;;;14.99;100.00;100530.53;4985495;28;20139;-79
2023/07/19 01:01:57;;;;;;;5.60;2.58;;;14.50;99.90;;;14.94;100.00;100530.47;4998941;28;19917;-79
2023/07/19 01:04:24;;;;;;;7.32;2.28;;;14.40;99.90;;;14.87;100.00;100524.31;4979695;28;20031;-79
2023/07/19 01:06:52;;;;;;;4.70;2.10;;;14.30;99.90;;;14.75;100.00;100514.22;4978910;28;20491;-79
2023/07/19 01:09:18;;;;;;;6.55;2.35;;;14.30;99.90;;;14.80;100.00;100525.28;4975387;28;20354;-79
2023/07/19 01:11:44;;;;;;;3.63;2.03;;;14.20;99.90;;;14.76;100.00;100515.88;5000261;28;20031;-79
2023/07/19 01:14:10;;;;;;;5.75;2.33;;;14.30;99.90;;;14.75;100.00;100505.97;5002106;28;20526;-79
2023/07/19 01:16:36;;;;;;;4.72;2.40;;;14.30;99.90;;;14.82;100.00;100511.31;4982696;28;20044;-79
2023/07/19 01:19:03;;;;;;;5.63;2.30;;;14.30;99.90;;;14.76;100.00;100512.31;4996789;28;20078;-80
2023/07/19 01:21:29;;;;;;;5.50;2.42;;;14.20;99.90;;;14.72;100.00;100505.63;5001026;28;20042;-79
2023/07/19 01:23:55;;;;;;;6.50;2.35;;;14.20;99.90;;;14.74;100.00;100498.00;4981359;28;20249;-80
2023/07/19 01:26:21;;;;;;;5.85;2.40;;;14.10;99.90;;;14.63;100.00;100489.53;4985483;28;20061;-79
2023/07/19 01:28:47;;;;;;;4.57;2.50;;;14.00;99.90;;;14.68;100.00;100486.06;4986662;28;20501;-80
2023/07/19 01:31:16;;;;;;;6.85;2.67;;;14.00;99.90;;;14.71;100.00;100502.06;4989470;28;20039;-80
2023/07/19 01:33:43;;;;;;;5.55;2.63;;;13.90;99.90;;;14.65;100.00;100489.31;4983151;28;20034;-79
2023/07/19 01:36:08;;;;;;;5.65;2.60;;;13.90;99.90;;;14.66;100.00;100496.47;4988930;28;20117;-79
2023/07/19 01:38:35;;;;;;;5.63;2.58;;;13.80;99.90;;;14.65;100.00;100509.34;4983747;28;20510;-80
2023/07/19 01:41:01;;;;;;;5.60;2.47;;;13.80;99.90;;;14.61;100.00;100504.63;4979960;28;20038;-79
2023/07/19 01:43:27;;;;;;;5.32;2.40;;;13.80;99.90;;;14.55;100.00;100497.34;4991605;28;20129;-80
2023/07/19 01:45:53;;;;;;;5.43;2.63;;;13.80;99.90;;;14.57;100.00;100496.03;4980376;28;20062;-79
2023/07/19 01:48:19;;;;;;;6.75;2.42;;;13.80;99.90;;;14.55;100.00;100492.69;4984077;28;20039;-80
2023/07/19 01:50:48;;;;;;;5.95;2.40;;;13.70;99.90;;;14.55;100.00;100483.63;4995238;28;20082;-79
2023/07/19 01:53:14;;;;;;;5.05;2.40;;;13.70;99.90;;;14.57;100.00;100479.56;5007903;28;20034;-79
2023/07/19 01:55:41;;;;;;;8.80;3.38;;;13.80;99.90;;;14.52;100.00;100474.81;4998515;28;20449;-80
2023/07/19 01:58:11;;;;;;;5.68;2.47;;;13.80;99.90;;;14.42;100.00;100479.28;5007022;28;20133;-78
2023/07/19 02:00:37;;;;;;;5.15;2.42;;;13.80;99.90;;;14.39;100.00;100475.13;4998018;28;20042;-80
2023/07/19 02:03:03;;;;;;;6.95;2.60;;;13.80;99.90;;;14.40;100.00;100471.31;4982552;28;20037;-80
2023/07/19 02:05:29;;;;;;;7.65;2.47;;;13.80;99.90;;;14.41;100.00;100477.63;4990934;28;20125;-79
2023/07/19 02:07:55;;;;;;;4.68;2.53;;;13.80;99.90;;;14.39;100.00;100477.88;4992158;28;20463;-79
2023/07/19 02:10:23;;;;;;;5.90;2.40;;;13.90;99.90;;;14.40;100.00;100482.28;5004510;28;20038;-79
2023/07/19 02:12:49;;;;;;;5.65;2.47;;;13.80;99.90;;;14.35;100.00;100479.44;4993547;28;20035;-79
2023/07/19 02:15:15;;;;;;;4.28;2.30;;;13.80;99.90;;;14.27;100.00;100477.94;4993588;28;20402;-79
2023/07/19 02:17:41;;;;;;;7.93;2.60;;;13.70;99.90;;;14.24;100.00;100478.44;4995071;28;20394;-79
2023/07/19 02:20:08;;;;;;;7.05;2.33;;;13.70;99.90;;;14.32;100.00;100474.44;4994152;28;20037;-79
2023/07/19 02:22:34;;;;;;;4.65;2.65;;;13.60;99.90;;;14.24;100.00;100475.69;4993446;28;20038;-78
2023/07/19 02:25:01;;;;;;;4.55;2.40;;;13.50;99.90;;;14.30;100.00;100468.34;4985949;28;20098;-79
2023/07/19 02:27:31;;;;;;;5.00;2.60;;;13.50;99.90;;;14.29;100.00;100463.94;4990051;28;20537;-80
2023/07/19 02:30:01;;;;;;;4.57;2.50;;;13.40;99.90;;;14.33;100.00;100465.16;4989594;28;20524;-79
2023/07/19 02:32:27;;;;;;;6.25;2.65;;;13.40;99.90;;;14.33;100.00;100457.72;4983328;28;20117;-80
2023/07/19 02:34:53;;;;;;;4.07;2.58;;;13.40;99.90;;;14.35;100.00;100452.81;4985309;28;20410;-79
2023/07/19 02:37:18;;;;;;;5.75;2.33;;;13.50;99.90;;;14.31;100.00;100445.31;4983145;28;20039;-80
2023/07/19 02:39:44;;;;;;;4.38;2.40;;;13.50;99.90;;;14.38;100.00;100462.50;4988735;28;20042;-80
2023/07/19 02:42:10;;;;;;;6.03;2.67;;;13.50;99.90;;;14.34;100.00;100455.84;4982262;28;20050;-80
2023/07/19 02:44:36;;;;;;;4.82;2.50;;;13.50;99.90;;;14.30;100.00;100443.66;4981257;28;20046;-80
2023/07/19 02:47:02;;;;;;;5.55;2.60;;;13.50;99.90;;;14.37;100.00;100450.66;4981820;28;20132;-80
2023/07/19 02:49:28;;;;;;;6.72;2.92;;;13.50;99.90;;;14.37;100.00;100453.41;4985177;28;20486;-80
2023/07/19 02:51:53;;;;;;;6.22;2.60;;;13.50;99.90;;;14.39;100.00;100459.47;4987795;28;20034;-79
2023/07/19 02:54:19;;;;;;;4.70;2.58;;;13.50;99.90;;;14.37;100.00;100458.09;4999013;28;20054;-80
2023/07/19 02:56:45;;;;;;;3.90;2.58;;;13.50;99.90;;;14.39;100.00;100459.47;4992934;28;20041;-80
2023/07/19 02:59:10;;;;;;;4.53;2.58;;;13.50;99.90;;;14.40;100.00;100463.06;4984235;28;20068;-80
2023/07/19 03:01:37;;;;;;;5.22;2.70;;;13.50;99.90;;;14.37;100.00;100453.41;5003916;28;20116;-79
2023/07/19 03:04:03;;;;;;;5.00;2.65;;;13.50;99.90;;;14.47;100.00;100455.50;4990534;28;20034;-79
2023/07/19 03:06:28;;;;;;;5.35;2.78;;;13.60;99.90;;;14.45;100.00;100445.84;4990636;28;20529;-80
2023/07/19 03:08:55;;;;;;;5.18;2.70;;;13.60;99.90;;;14.53;100.00;100442.72;5011842;28;20038;-80
2023/07/19 03:11:20;;;;;;;5.70;2.95;;;13.60;99.90;;;14.50;100.00;100448.69;4991507;28;20131;-80
2023/07/19 03:13:46;;;;;;;5.18;2.70;;;13.60;99.90;;;14.52;100.00;100452.84;4992616;28;20039;-80
2023/07/19 03:16:12;;;;;;;4.75;2.75;;;13.60;99.90;;;14.53;100.00;100442.72;4994149;28;20042;-80
2023/07/19 03:18:38;;;;;;;5.25;2.40;;;13.60;99.90;;;14.48;100.00;100434.41;5004787;28;20444;-80
2023/07/19 03:21:04;;;;;;;4.20;2.40;;;13.60;99.90;;;14.39;100.00;100434.78;4983997;28;20048;-80
2023/07/19 03:23:30;;;;;;;3.78;2.47;;;13.60;99.90;;;14.32;100.00;100434.13;4991256;28;20052;-80
2023/07/19 03:25:58;;;;;;;5.47;2.70;;;13.50;99.90;;;14.26;100.00;100437.00;5003040;28;20019;-79
2023/07/19 03:28:25;;;;;;;;;;;13.40;99.90;;;14.22;100.00;100436.69;5018817;28;20034;-80
2023/07/19 03:30:54;;;;;;;6.38;2.92;;;13.30;99.90;;;14.19;100.00;100443.50;5009582;28;19997;-79
2023/07/19 03:33:22;;;;;;;5.20;2.70;;;13.30;99.90;;;14.23;100.00;100444.66;4997915;28;20038;-79
2023/07/19 03:35:48;;;;;;;5.93;2.80;;;13.40;99.90;;;14.22;100.00;100445.72;5000289;28;20030;-81
2023/07/19 03:38:15;;;;;;;5.30;2.58;;;13.30;99.90;;;14.22;100.00;100432.00;5003048;28;20129;-79
2023/07/19 03:40:41;;;;;;;7.00;2.75;;;13.30;99.90;;;14.20;100.00;100439.66;5009598;28;20034;-79
2023/07/19 03:43:07;;;;;;;8.07;3.03;;;13.30;99.90;;;14.19;100.00;100443.50;4996971;28;20038;-80
2023/07/19 03:45:33;;;;;;;6.78;2.70;;;13.40;99.90;;;14.24;100.00;100438.09;5016669;28;20046;-80
2023/07/19 03:47:59;;;;;;;6.28;2.80;;;13.40;99.90;;;14.28;100.00;100430.22;4986556;28;20038;-79
2023/07/19 03:50:25;;;;;;;5.85;2.78;;;13.40;99.90;;;14.31;100.00;100432.44;5003072;28;20038;-80
2023/07/19 03:52:52;;;;;;;4.97;2.88;;;13.50;99.90;;;14.25;100.00;100427.97;4991934;28;20046;-78
2023/07/19 03:55:20;;;;;;;5.03;2.75;;;13.60;99.90;;;14.42;100.00;100436.22;4984095;28;20046;-79
2023/07/19 03:57:47;;;;;;;5.90;3.00;;;13.60;99.90;;;14.38;100.00;100422.16;5000077;28;20049;-78
2023/07/19 04:00:13;;;;;;;4.55;2.70;;;13.70;99.90;;;14.56;100.00;100442.22;4998896;28;20035;-79
2023/07/19 04:02:45;;;;;;;5.05;2.67;;;13.70;99.90;;;14.59;100.00;100435.41;4992316;28;20486;-79
2023/07/19 04:05:13;;;;;;;5.50;2.30;;;13.80;99.90;;;14.62;100.00;100438.47;4999921;28;20035;-79
2023/07/19 04:07:39;;;;;;;6.63;2.78;;;13.90;99.90;;;14.64;100.00;100435.47;4989428;28;20120;-78
2023/07/19 04:10:05;;;;;;;6.63;3.15;;;13.90;99.90;;;14.59;100.00;100432.66;4989197;28;20371;-79
2023/07/19 04:12:30;;;;;;;6.05;2.67;;;13.90;99.90;;;14.68;100.00;100425.66;4988637;28;20050;-79
2023/07/19 04:14:57;;;;;;;5.72;2.50;;;14.00;99.90;;;14.76;100.00;100425.25;4996909;28;20567;-80
2023/07/19 04:17:25;;;;;;;5.97;2.78;;;14.10;99.90;;;14.79;100.00;100429.44;4965066;28;20503;-79
2023/07/19 04:19:51;;;;;;;4.90;2.90;;;14.20;99.90;;;14.85;100.00;100433.91;4995547;28;20045;-77
2023/07/19 04:22:17;;;;;;;6.00;2.70;;;14.30;99.90;;;14.91;100.00;100437.59;4981053;28;20450;-79
2023/07/19 04:24:42;;;;;;;4.75;2.40;;;14.40;99.90;;;15.02;100.00;100433.91;4984965;28;20118;-79
2023/07/19 04:27:09;;;;;;;6.13;2.50;;;14.50;99.90;;;15.10;100.00;100441.69;4987021;28;20035;-78
2023/07/19 04:29:35;;;;;;;5.70;2.75;;;14.60;99.90;;;15.22;100.00;100435.28;4998718;28;20066;-78
2023/07/19 04:32:02;;;;;;;5.00;2.80;;;14.70;99.90;;;15.43;100.00;100443.81;4991802;28;20496;-78
2023/07/19 04:34:29;;;;;;;6.22;2.50;;;14.80;99.90;;;15.55;100.00;100447.25;4985694;28;20034;-79
2023/07/19 04:36:55;;;;;;;4.28;2.30;;;14.90;99.90;;;15.63;100.00;100452.31;4989894;28;20045;-79
2023/07/19 04:39:21;;;;;;;4.68;2.45;;;15.00;99.90;;;15.73;100.00;100448.03;4979953;28;20034;-79
2023/07/19 04:41:48;;;;;;;3.80;2.20;;;15.20;99.90;;;15.82;100.00;100447.34;4990575;28;20054;-79
2023/07/19 04:44:16;;;;;;;6.25;2.47;;;15.20;99.90;;;15.89;100.00;100454.59;4991749;28;20043;-79
2023/07/19 04:46:42;;;;;;;5.18;2.00;;;15.30;99.90;;;15.96;100.00;100453.31;4988423;28;20594;-79
2023/07/19 04:49:08;;;;;;;6.25;2.65;;;15.30;99.90;;;15.93;100.00;100448.31;4980959;28;20042;-79
2023/07/19 04:51:33;;;;;;;5.40;2.30;;;15.40;99.90;;;16.02;100.00;100447.84;4990846;28;20228;-79
2023/07/19 04:53:59;;;;;;;7.95;2.42;;;15.50;99.90;;;16.13;100.00;100446.88;4981685;28;20041;-79
2023/07/19 04:56:26;;;;;;;7.40;2.58;;;15.50;99.90;;;16.17;100.00;100442.50;4976781;28;20035;-79
2023/07/19 04:58:52;;;;;;;5.10;2.53;;;15.50;99.90;;;16.22;100.00;100447.22;4985047;28;20113;-78
2023/07/19 05:01:18;;;;;;;5.43;2.35;;;15.60;99.90;;;16.22;100.00;100442.56;4984775;28;20451;-79
2023/07/19 05:03:44;;;;;;;8.38;2.53;;;15.70;99.90;;;16.21;100.00;100440.91;5005146;28;20134;-79
2023/07/19 05:06:10;;;;;;;5.88;2.70;;;15.70;99.90;;;16.25;100.00;100435.69;4985363;28;20718;-79
2023/07/19 05:08:37;;;;;;;7.30;2.95;;;15.70;99.90;;;16.30;100.00;100435.75;4991387;28;20026;-79
2023/07/19 05:11:04;;;;;;;6.93;2.60;;;15.80;99.90;;;16.36;100.00;100444.91;4985449;28;20030;-79
2023/07/19 05:13:30;;;;;;;5.05;2.38;;;15.80;99.90;;;16.44;100.00;100444.41;4989792;28;20140;-78
2023/07/19 05:15:56;;;;;;;6.03;2.70;;;15.80;99.90;;;16.56;100.00;100444.25;4995430;28;20039;-80
2023/07/19 05:18:23;;;;;;;6.47;2.95;;;16.00;99.90;;;16.70;100.00;100447.38;5008551;28;20038;-80
2023/07/19 05:20:49;;;;;;;5.93;2.65;;;16.10;99.90;;;16.80;100.00;100430.13;4990460;28;20026;-80
2023/07/19 05:23:15;;;;;;;5.03;2.70;;;16.20;99.90;;;16.99;100.00;100441.59;4988228;28;20495;-80
2023/07/19 05:25:41;;;;;;;6.32;2.58;;;16.40;99.90;;;17.19;100.00;100443.66;4993478;28;20184;-80
2023/07/19 05:28:06;;;;;;;6.20;2.33;;;16.50;99.90;;;17.39;100.00;100434.66;4987964;28;20379;-78
2023/07/19 05:30:32;;;;;;;6.00;2.58;;;;;;;17.50;100.00;100438.28;4982129;28;20043;-80
2023/07/19 05:32:58;;;;;;;5.75;2.55;;;16.70;99.90;;;17.62;100.00;100440.84;4977308;28;20118;-79
2023/07/19 05:35:24;;;;;;;6.18;2.47;;;;;;;17.75;100.00;100439.50;5003181;28;20042;-80
2023/07/19 05:37:50;;;;;;;6.13;2.60;;;17.00;99.90;;;17.78;100.00;100424.34;4986609;28;20442;-78
2023/07/19 05:40:17;;;;;;;6.20;2.30;;;17.20;99.90;;;17.97;100.00;100433.78;4986052;28;20034;-79
2023/07/19 05:42:42;;;;;;;5.93;2.40;;;17.30;99.90;;;17.97;100.00;100424.69;4986360;28;20552;-79
2023/07/19 05:45:08;;;;;;;6.68;2.50;;;17.40;99.90;;;17.87;100.00;100425.47;4988268;28;20049;-79
2023/07/19 05:47:34;;;;;;;7.13;2.50;;;17.40;99.90;;;17.78;100.00;100425.16;4979751;28;20043;-79
2023/07/19 05:50:01;;;;;;;7.05;2.40;;;17.40;99.90;;;17.74;100.00;100434.25;4991207;28;20125;-78
2023/07/19 05:52:28;;;;;;;5.75;2.22;;;17.30;99.90;;;17.65;100.00;100429.25;4984318;28;20093;-80
2023/07/19 05:54:54;;;;;;;6.28;2.47;;;17.20;99.90;;;17.65;100.00;100432.00;4977996;28;20034;-78
2023/07/19 05:57:20;;;;;;;6.15;2.40;;;17.20;99.90;;;17.74;100.00;100420.44;4980859;28;20386;-80
2023/07/19 05:59:46;;;;;;;4.45;2.22;;;17.30;99.90;;;17.71;100.00;100418.25;4991845;28;20030;-78
2023/07/19 06:02:12;;;;;;;5.93;2.20;;;17.40;99.90;;;17.82;100.00;100422.72;4979872;28;20070;-79
2023/07/19 06:04:38;;;;;;;5.63;2.20;;;17.50;99.90;;;17.98;100.00;100424.38;4985111;28;20050;-79
2023/07/19 06:07:04;;;;;;;6.15;2.58;;;17.70;99.90;;;18.57;100.00;100418.69;4994488;28;20034;-79
2023/07/19 06:09:30;;;;;;;6.68;2.60;;;18.10;99.90;;;18.80;100.00;100413.72;4987216;28;20509;-78
2023/07/19 06:11:57;;;;;;;6.03;2.90;;;18.50;99.90;;;18.97;100.00;100417.03;4981074;28;20082;-78
2023/07/19 06:14:25;;;;;;;7.38;2.63;;;18.80;99.90;;;19.22;100.00;100407.03;4984728;28;20077;-78
2023/07/19 06:16:51;;;;;;;8.38;3.03;;;19.00;99.90;;;19.66;100.00;100416.56;4981326;28;20030;-78
2023/07/19 06:19:19;;;;;;;6.18;2.50;;;19.30;99.90;;;19.96;100.00;100409.25;4986325;28;20618;-79
2023/07/19 06:21:45;;;;;;;7.60;2.40;;;19.50;99.90;;;19.97;100.00;100410.88;4990549;28;20049;-79
2023/07/19 06:24:11;;;;;;;5.50;2.10;;;19.80;99.90;;;20.10;96.07;100416.88;4983932;28;20453;-80
2023/07/19 06:26:36;;;;;;;5.97;2.28;;;19.90;99.90;;;20.19;92.26;100406.03;4987924;28;20046;-79
2023/07/19 06:29:02;;;;;;;7.93;2.30;;;20.00;99.90;;;20.23;94.46;100421.81;4985274;28;20038;-79
2023/07/19 06:31:28;;;;;;;5.95;2.20;;;20.10;99.90;;;20.40;94.34;100415.84;4988986;28;20475;-79
2023/07/19 06:33:54;;;;;;;4.93;2.20;;;20.20;99.90;;;20.61;92.55;100418.47;4987638;28;20467;-79
2023/07/19 06:36:20;;;;;;;6.05;2.55;;;20.50;99.90;;;20.92;88.30;100420.16;4976969;28;20047;-79
2023/07/19 06:38:47;;;;;;;4.28;2.08;;;20.70;99.90;;;21.10;80.57;100408.31;4989442;28;20042;-80
2023/07/19 06:41:12;;;;;;;5.53;2.00;;;20.90;99.90;;;21.42;76.98;100406.84;4977337;28;20062;-80
2023/07/19 06:43:38;;;;;;;7.35;2.53;;;21.20;99.90;;;21.67;78.71;100404.88;4984728;28;20449;-79
2023/07/19 06:46:04;;;;;;;5.07;2.30;;;21.40;99.90;;;22.01;75.06;100404.97;4984033;28;20047;-79
2023/07/19 06:48:29;;;;;;;4.78;2.30;;;21.80;99.90;;;22.39;70.26;100403.00;4992131;28;20038;-79
2023/07/19 06:50:56;;;;;;;7.32;2.10;;;;;;;22.67;69.39;100410.66;4992948;28;20038;-79
2023/07/19 06:53:22;;;;;;;6.97;2.30;;;;;;;22.72;63.49;100404.19;4987524;28;20392;-79
2023/07/19 06:55:52;;;;;;;5.93;2.10;;;;;;;22.72;64.42;100405.00;4992777;28;20046;-79
2023/07/19 06:58:18;;;;;;;3.70;2.10;;;;;;;22.47;62.43;100398.75;4992802;28;20031;-79
2023/07/19 07:00:44;;;;;;;6.43;1.90;;;;;;;22.55;58.73;100389.75;4990109;28;20058;-80
2023/07/19 07:03:10;;;;;;;4.40;1.95;;;22.10;98.70;;;22.49;56.43;100392.91;4992373;28;20039;-81
2023/07/19 07:05:36;;;;;;;4.03;1.83;;;22.40;92.60;;;22.55;54.60;100364.72;4985957;28;20100;-80
2023/07/19 07:08:01;;;;;;;4.72;2.03;;;22.40;92.40;;;22.51;55.77;100391.44;4991754;28;20034;-79
2023/07/19 07:10:27;;;;;;;3.78;1.80;;;22.40;92.10;;;22.26;54.23;100382.38;4980838;28;20050;-79
2023/07/19 07:12:53;;;;;;;5.53;1.95;;;22.20;91.80;;;21.96;63.03;100420.59;4992337;28;20026;-79
2023/07/19 07:15:18;;;;;;;3.72;2.03;;;21.80;94.80;;;21.46;80.46;100429.28;4991555;28;20092;-78
2023/07/19 07:17:45;;;;;;;3.80;1.80;;;21.20;98.10;;;21.06;85.37;100434.97;4991804;28;20034;-79
2023/07/19 07:20:11;;;;;;;5.53;2.38;;;20.70;99.70;;;20.61;84.18;100432.31;4985857;28;20068;-79
2023/07/19 07:22:37;;;;;;;4.60;1.95;;;20.40;99.70;;;20.82;89.50;100434.91;4987138;28;20035;-79
2023/07/19 07:25:03;;;;;;;5.20;2.05;;;20.40;99.90;;;20.94;89.89;100423.44;4991454;28;20398;-78
2023/07/19 07:27:29;;;;;;;4.40;1.80;;;20.60;99.90;;;20.94;79.91;100407.66;4991478;28;20088;-79
2023/07/19 07:29:54;;;;;;;4.88;2.08;;;20.80;98.00;;;21.21;78.16;100408.19;4992538;28;20486;-78
2023/07/19 07:32:20;;;;;;;3.75;1.85;;;21.10;97.80;;;21.45;77.84;100412.91;4991008;28;20491;-79
2023/07/19 07:34:46;;;;;;;8.73;2.50;;;21.40;97.70;;;21.76;76.76;100416.16;4987862;28;20035;-79
2023/07/19 07:37:12;;;;;;;5.35;2.35;;;21.70;97.20;;;21.68;77.16;100420.41;5006771;28;20030;-79
2023/07/19 07:39:37;;;;;;;4.95;2.00;;;21.80;97.40;;;22.15;71.41;100411.44;5005202;28;20069;-80
2023/07/19 07:42:04;;;;;;;4.93;2.00;;;22.00;96.20;;;22.20;65.94;100403.03;4984070;28;20031;-79
2023/07/19 07:44:29;;;;;;;3.78;1.92;;;22.10;95.10;;;22.04;67.05;100408.00;4985191;28;20038;-79
2023/07/19 07:46:55;;;;;;;4.28;1.80;;;22.20;94.60;;;22.33;62.22;100397.84;4992467;28;20068;-79
2023/07/19 07:49:21;;;;;;;4.95;1.98;;;22.20;94.00;;;22.09;59.62;100388.47;4985881;28;20039;-80
2023/07/19 07:51:46;;;;;;;4.10;1.90;;;22.20;92.70;;;22.30;58.60;100398.47;4991507;28;20040;-81
2023/07/19 07:54:13;;;;;;;5.05;1.90;;;22.40;92.20;;;22.42;59.35;100398.81;4991123;28;20038;-81
2023/07/19 07:56:38;;;;;;;5.00;1.70;;;22.50;92.90;;;22.75;57.09;100396.03;4991681;28;20039;-80
2023/07/19 07:59:04;;;;;;;4.90;1.88;;;22.60;92.60;;;22.69;57.14;100402.84;4990095;28;20038;-79
2023/07/19 08:01:30;;;;;;;5.03;1.60;;;22.70;92.30;;;23.03;57.07;100401.66;4988651;28;20085;-79
2023/07/19 08:03:55;;;;;;;5.38;1.92;;;22.80;92.50;;;22.81;56.18;100397.63;4979575;28;20043;-79
2023/07/19 08:06:21;;;;;;;4.78;1.73;;;22.70;92.00;;;22.65;56.45;100399.81;4991365;28;20049;-82
2023/07/19 08:08:47;;;;;;;5.53;1.73;;;22.60;91.80;;;22.51;58.72;100405.34;4996002;28;20112;-80
2023/07/19 08:11:12;;;;;;;5.78;1.80;;;22.60;92.70;;;21.90;58.57;100407.91;5009692;28;20130;-80
2023/07/19 08:13:38;;;;;;;6.68;1.90;;;22.20;91.60;;;21.85;57.49;100394.13;5013666;28;20093;-81
2023/07/19 08:16:06;;;;;;;5.53;1.90;;;22.10;91.30;;;22.44;57.30;100404.06;4981329;28;20066;-81
2023/07/19 08:18:34;;;;;;;;;;;22.30;91.80;;;22.59;53.18;100389.94;4985352;28;20031;-80
2023/07/19 08:20:59;;;;;;;4.82;1.60;;;22.50;90.20;;;22.80;52.81;100393.16;4990148;28;20423;-80
2023/07/19 08:23:25;;;;;;;4.88;2.00;;;22.80;90.10;;;23.32;52.28;100399.75;4990341;28;20042;-80
2023/07/19 08:25:58;;;;;;;5.35;1.60;;;23.10;90.30;;;23.04;53.11;100406.09;4990409;28;20038;-80
2023/07/19 08:28:27;;;;;;;4.80;1.90;;;23.10;90.20;;;22.57;54.18;100408.06;4991666;28;20088;-79
2023/07/19 08:30:54;;;;;;;4.60;1.58;;;22.80;90.00;;;23.25;53.51;100403.78;4984737;28;20042;-80
2023/07/19 08:33:22;;;;;;;4.53;2.15;;;23.00;90.30;;;23.06;53.63;100403.81;4991452;28;20030;-81
2023/07/19 08:35:49;;;;;;;6.32;1.80;;;23.10;90.10;;;23.10;53.78;100410.44;4983242;28;20050;-80
2023/07/19 08:38:16;;;;;;;5.53;2.10;;;23.10;90.10;;;23.29;54.31;100411.50;4982393;28;20034;-81
2023/07/19 08:40:56;;;;;;;3.70;1.60;;;23.20;90.60;;;23.70;53.33;100394.78;5006612;28;20045;-81
2023/07/19 08:43:26;;;;;;;6.88;1.85;;;;;;;23.82;51.87;100393.41;4982113;28;20038;-81
2023/07/19 08:45:53;;;;;;;4.85;1.80;;;;;;;24.30;50.71;100394.84;4983872;28;20054;-80
2023/07/19 08:48:20;;;;;;;6.07;1.92;;;;;;;23.95;52.27;100402.84;4991542;28;20045;-80
2023/07/19 08:50:55;;;;;;;5.85;1.85;;;;;;;24.03;53.71;100412.47;4984943;28;20059;-80
2023/07/19 08:53:21;;;;;;;7.72;2.45;;;;;;;24.13;52.54;100409.44;4986635;28;20105;-79
2023/07/19 08:55:47;;;;;;;6.00;2.05;;;;;;;24.46;52.38;100402.81;4983986;28;20057;-81
2023/07/19 08:58:16;;;;;;;6.70;2.05;;;;;;;24.37;49.92;100389.63;4986404;28;20082;-81
2023/07/19 09:00:42;;;;;;;5.43;1.92;;;23.40;90.80;;;23.18;55.04;100400.53;4986609;28;20045;-81
2023/07/19 09:03:09;;;;;;;5.68;2.20;;;24.00;88.80;;;23.26;55.77;100402.66;4977410;28;20102;-81
2023/07/19 09:05:36;;;;;;;;;;;23.70;89.00;;;23.45;56.49;100403.66;4983733;28;20497;-81
2023/07/19 09:08:02;;;;;;;7.85;2.15;;;;;;;23.89;54.92;100395.75;4988542;28;19922;-81
2023/07/19 09:10:28;;;;;;;6.13;2.03;;;23.40;90.00;;;22.81;56.34;100408.75;4991368;28;20108;-80
2023/07/19 09:12:55;;;;;;;5.35;2.25;;;23.40;89.00;;;23.06;58.32;100411.34;4976764;28;20035;-82
2023/07/19 09:15:21;;;;;;;6.10;2.25;;;23.30;90.50;;;22.60;59.13;100413.00;5000870;28;20046;-81
2023/07/19 09:17:49;;;;;;;7.07;2.40;;;23.00;90.50;;;22.38;60.81;100417.22;4986207;28;20042;-81
2023/07/19 09:20:20;;;;;;;9.50;2.40;;;22.80;91.00;;;22.75;61.56;100409.94;4981591;28;20039;-81
2023/07/19 09:22:45;;;;;;;6.35;2.42;;;22.80;91.60;;;22.41;61.42;100411.91;4990368;28;20106;-83
2023/07/19 09:25:12;;;;;;;6.80;2.30;;;22.70;91.20;;;22.70;62.09;100412.81;5001698;28;20055;-80
2023/07/19 09:27:43;;;;;;;6.47;2.20;;;22.80;91.70;;;23.55;61.85;100409.00;4982140;28;20142;-82
2023/07/19 09:30:11;;;;;;;6.40;2.08;;;23.20;92.20;;;23.62;57.67;100397.47;4985183;28;20149;-83
2023/07/19 09:32:38;;;;;;;6.85;2.42;;;23.50;90.90;;;23.94;55.75;100393.69;4984558;28;20074;-81
2023/07/19 09:35:07;;;;;;;6.28;2.17;;;;;;;24.10;53.24;100382.19;4985553;28;20477;-80
2023/07/19 09:37:33;;;;;;;5.72;2.28;;;23.70;90.40;;;23.80;54.33;100390.09;4984812;28;20462;-80
2023/07/19 09:40:04;;;;;;;5.32;2.40;;;;;;;24.34;53.01;100395.00;5002724;28;20054;-81
2023/07/19 09:42:36;;;;;;;7.97;2.35;;;;;;;24.64;53.70;100387.84;4987448;28;20498;-82
2023/07/19 09:45:04;;;;;;;7.50;2.20;;;;;;;24.44;51.00;100377.22;4988381;28;20039;-81
2023/07/19 09:47:34;;;;;;;5.82;2.00;;;23.80;88.50;;;24.37;51.97;100378.50;4985993;28;20050;-81
2023/07/19 09:50:00;;;;;;;5.85;2.25;;;24.20;88.30;;;24.44;52.16;100394.78;4989538;28;20038;-81
2023/07/19 09:52:26;;;;;;;5.90;2.00;;;24.30;88.00;;;24.01;53.15;100384.06;4983519;28;20079;-80
2023/07/19 09:54:53;;;;;;;4.88;2.10;;;24.20;88.20;;;24.26;53.51;100385.44;4989910;28;20034;-80
2023/07/19 09:57:26;;;;;;;6.97;2.10;;;;;;;24.97;51.69;100381.97;4989346;28;20493;-81
2023/07/19 09:59:53;;;;;;;5.57;2.17;;;;;;;25.43;50.09;100363.09;4988216;28;20382;-80
2023/07/19 10:02:22;;;;;;;5.05;2.08;;;;;;;25.81;49.25;100366.47;4989263;28;20034;-82
2023/07/19 10:04:48;;;;;;;8.00;2.05;;;;;;;25.98;47.82;100365.66;4983197;28;20085;-84
2023/07/19 10:07:20;;;;;;;5.88;1.85;;;;;;;25.88;48.27;100366.78;4988976;28;20424;-80
2023/07/19 10:09:49;;;;;;;5.43;1.90;;;;;;;25.13;48.16;100364.81;4988123;28;20061;-79
2023/07/19 10:12:15;;;;;;;3.97;1.80;;;;;;;23.96;50.55;100376.66;4989908;28;20057;-80